| time (UTC) | temp F | wind direction | speed MPH | gust MPH | rain 1hr in | rain 24hr in | rain mn in | humidity % | barometer mb |
| 20260831225702 | 85 | 297 | 0.0 | 0.0 | 0.00 | 0.00 | 0.00 | 79 | 974.7 |
| 20260831225201 | 86 | 297 | 0.0 | 0.0 | 0.00 | 0.00 | 0.00 | 77 | 974.7 |
| 20260831224700 | 87 | 297 | 0.0 | 0.0 | 0.00 | 0.00 | 0.00 | 74 | 974.7 |
| 20260831224202 | 88 | 297 | 0.0 | 0.0 | 0.00 | 0.00 | 0.00 | 73 | 974.7 |
| 20260831223656 | 89 | 297 | 0.0 | 0.0 | 0.00 | 0.00 | 0.00 | 71 | 974.8 |
| 20260831223150 | 89 | 297 | 0.0 | 0.0 | 0.00 | 0.00 | 0.00 | 70 | 974.8 |
| 20260831222644 | 90 | 297 | 0.0 | 0.0 | 0.00 | 0.00 | 0.00 | 68 | 974.8 |
| 20260831222138 | 90 | 297 | 0.0 | 0.0 | 0.00 | 0.00 | 0.00 | 67 | 974.8 |
| 20260831221633 | 89 | 297 | 0.0 | 0.0 | 0.00 | 0.00 | 0.00 | 67 | 974.7 |
| 20260831221126 | 89 | 297 | 0.0 | 1.0 | 0.00 | 0.00 | 0.00 | 68 | 974.7 |
| 20260831220620 | 89 | 297 | 0.0 | 1.0 | 0.00 | 0.00 | 0.00 | 68 | 974.9 |
| 20260831215608 | 89 | 297 | 0.0 | 1.0 | 0.00 | 0.00 | 0.00 | 69 | 974.9 |
| 20260831215102 | 89 | 297 | 0.0 | 1.0 | 0.00 | 0.00 | 0.00 | 70 | 975.0 |
| 20260831214556 | 88 | 297 | 0.0 | 1.0 | 0.00 | 0.00 | 0.00 | 71 | 975.0 |
| 20260831214050 | 88 | 297 | 0.0 | 2.0 | 0.00 | 0.00 | 0.00 | 73 | 975.1 |
| 20260831213544 | 87 | 297 | 0.0 | 2.0 | 0.00 | 0.00 | 0.00 | 73 | 975.1 |
| 20260831213038 | 86 | 297 | 0.0 | 0.0 | 0.00 | 0.00 | 0.00 | 76 | 975.1 |
| 20260831212532 | 85 | 297 | 0.0 | 1.0 | 0.00 | 0.00 | 0.00 | 78 | 975.2 |
| 20260831212026 | 84 | 297 | 0.0 | 1.0 | 0.00 | 0.00 | 0.00 | 79 | 975.1 |
| 20260831211520 | 83 | 297 | 0.0 | 0.0 | 0.00 | 0.00 | 0.00 | 81 | 975.1 |
| 20260831211014 | 82 | 296 | 0.0 | 0.0 | 0.00 | 0.00 | 0.00 | 84 | 975.2 |
| 20260831210508 | 81 | 296 | 0.0 | 0.0 | 0.00 | 0.00 | 0.00 | 85 | 975.2 |
| 20260831210004 | 80 | 296 | 0.0 | 3.0 | 0.00 | 0.00 | 0.00 | 85 | 975.3 |
| 20260831205457 | 80 | 296 | 1.0 | 4.0 | 0.00 | 0.00 | 0.00 | 85 | 975.3 |
| 20260831204950 | 81 | 296 | 1.0 | 4.0 | 0.00 | 0.00 | 0.00 | 84 | 975.3 |
| 20260831204446 | 81 | 140 | 0.0 | 2.0 | 0.00 | 0.00 | 0.00 | 84 | 975.2 |
| 20260831203938 | 81 | 140 | 0.0 | 0.0 | 0.00 | 0.00 | 0.00 | 84 | 975.1 |
| 20260831203433 | 81 | 140 | 0.0 | 0.0 | 0.00 | 0.00 | 0.00 | 84 | 975.3 |
| 20260831202421 | 80 | 140 | 0.0 | 0.0 | 0.00 | 0.00 | 0.00 | 84 | 975.5 |
| 20260831201914 | 80 | 140 | 0.0 | 0.0 | 0.00 | 0.00 | 0.00 | 83 | 975.5 |
| 20260831201408 | 80 | 140 | 1.0 | 10.0 | 0.00 | 0.00 | 0.00 | 83 | 975.7 |
| 20260831200356 | 80 | 195 | 1.0 | 4.0 | 0.00 | 0.00 | 0.00 | 81 | 975.9 |
| 20260831195852 | 80 | 307 | 2.0 | 8.0 | 0.00 | 0.00 | 0.00 | 80 | 976.0 |
| 20260831195345 | 80 | 317 | 2.0 | 8.0 | 0.00 | 0.00 | 0.00 | 79 | 976.2 |
| 20260831194840 | 81 | 309 | 1.0 | 7.0 | 0.00 | 0.00 | 0.00 | 78 | 976.2 |
| 20260831194333 | 82 | 310 | 1.0 | 5.0 | 0.00 | 0.00 | 0.00 | 78 | 976.2 |
| 20260831193826 | 82 | 24 | 2.0 | 13.0 | 0.00 | 0.00 | 0.00 | 76 | 976.1 |
| 20260831192814 | 86 | 314 | 3.0 | 13.0 | 0.00 | 0.00 | 0.00 | 69 | 976.1 |
| 20260831192308 | 89 | 15 | 2.0 | 13.0 | 0.00 | 0.00 | 0.00 | 68 | 975.9 |
| 20260831191258 | 90 | 190 | 2.0 | 5.0 | 0.00 | 0.00 | 0.00 | 64 | 975.8 |
| 20260831190750 | 90 | 112 | 2.0 | 5.0 | 0.00 | 0.00 | 0.00 | 65 | 975.8 |
| 20260831190245 | 90 | 121 | 2.0 | 7.0 | 0.00 | 0.00 | 0.00 | 67 | 975.8 |
| 20260831185739 | 90 | 120 | 1.0 | 7.0 | 0.00 | 0.00 | 0.00 | 66 | 975.9 |
| 20260831184726 | 90 | 80 | 1.0 | 5.0 | 0.00 | 0.00 | 0.00 | 67 | 975.7 |
| 20260831184220 | 90 | 80 | 2.0 | 5.0 | 0.00 | 0.00 | 0.00 | 69 | 975.6 |
| 20260831183714 | 90 | 157 | 2.0 | 5.0 | 0.00 | 0.00 | 0.00 | 69 | 975.7 |
| 20260831183208 | 89 | 304 | 2.0 | 4.0 | 0.00 | 0.00 | 0.00 | 68 | 975.9 |
| 20260831182703 | 88 | 159 | 2.0 | 7.0 | 0.00 | 0.00 | 0.00 | 70 | 975.9 |
| 20260831182158 | 88 | 159 | 2.0 | 7.0 | 0.00 | 0.00 | 0.00 | 71 | 975.9 |
| 20260831180639 | 90 | 98 | 1.0 | 6.0 | 0.00 | 0.00 | 0.00 | 68 | 975.9 |
| 20260831180132 | 89 | 74 | 2.0 | 5.0 | 0.00 | 0.00 | 0.00 | 65 | 976.0 |
| 20260831175626 | 89 | 74 | 2.0 | 5.0 | 0.00 | 0.00 | 0.00 | 66 | 976.1 |
| 20260831174615 | 89 | 89 | 1.0 | 6.0 | 0.00 | 0.00 | 0.00 | 67 | 976.3 |
| 20260831174109 | 89 | 89 | 1.0 | 6.0 | 0.00 | 0.00 | 0.00 | 66 | 976.3 |
| 20260831173603 | 89 | 321 | 1.0 | 5.0 | 0.00 | 0.00 | 0.00 | 69 | 976.3 |
| 20260831173056 | 90 | 329 | 1.0 | 5.0 | 0.00 | 0.00 | 0.00 | 68 | 976.4 |
| 20260831172550 | 89 | 152 | 1.0 | 6.0 | 0.00 | 0.00 | 0.00 | 73 | 976.4 |
| 20260831172044 | 89 | 142 | 2.0 | 6.0 | 0.00 | 0.00 | 0.00 | 70 | 976.4 |
| 20260831171033 | 89 | 121 | 1.0 | 6.0 | 0.00 | 0.00 | 0.00 | 71 | 976.4 |
| 20260831170526 | 89 | 148 | 1.0 | 5.0 | 0.00 | 0.00 | 0.00 | 70 | 976.5 |
| 20260831170021 | 89 | 80 | 1.0 | 4.0 | 0.00 | 0.00 | 0.00 | 72 | 976.4 |
| 20260831165515 | 89 | 80 | 1.0 | 4.0 | 0.00 | 0.00 | 0.00 | 72 | 976.5 |
| 20260831165008 | 88 | 324 | 1.0 | 3.0 | 0.00 | 0.00 | 0.00 | 71 | 976.5 |
| 20260831164503 | 88 | 324 | 1.0 | 3.0 | 0.00 | 0.00 | 0.00 | 71 | 976.6 |
| 20260831163956 | 88 | 324 | 0.0 | 3.0 | 0.00 | 0.00 | 0.00 | 70 | 976.6 |
| 20260831163450 | 88 | 324 | 0.0 | 3.0 | 0.00 | 0.00 | 0.00 | 73 | 976.7 |
| 20260831162945 | 87 | 324 | 1.0 | 3.0 | 0.00 | 0.00 | 0.00 | 74 | 976.7 |
| 20260831161932 | 86 | 324 | 2.0 | 5.0 | 0.00 | 0.00 | 0.00 | 75 | 976.8 |
| 20260831161426 | 86 | 324 | 3.0 | 6.0 | 0.00 | 0.00 | 0.00 | 74 | 976.8 |
| 20260831160920 | 87 | 324 | 2.0 | 6.0 | 0.00 | 0.00 | 0.00 | 72 | 976.8 |
| 20260831155908 | 87 | 341 | 0.0 | 2.0 | 0.00 | 0.00 | 0.00 | 74 | 976.7 |
| 20260831154857 | 87 | 336 | 0.0 | 2.0 | 0.00 | 0.00 | 0.00 | 73 | 976.8 |
| 20260831154351 | 86 | 336 | 0.0 | 2.0 | 0.00 | 0.00 | 0.00 | 73 | 976.8 |
| 20260831153844 | 86 | 336 | 0.0 | 3.0 | 0.00 | 0.00 | 0.00 | 75 | 976.8 |
| 20260831153339 | 85 | 336 | 0.0 | 3.0 | 0.00 | 0.00 | 0.00 | 77 | 976.8 |
| 20260831152834 | 85 | 316 | 0.0 | 3.0 | 0.00 | 0.00 | 0.00 | 77 | 976.8 |
| 20260831152327 | 85 | 316 | 0.0 | 3.0 | 0.00 | 0.00 | 0.00 | 77 | 976.9 |
| 20260831151824 | 84 | 316 | 1.0 | 3.0 | 0.00 | 0.00 | 0.00 | 78 | 976.9 |
| 20260831151322 | 84 | 316 | 1.0 | 3.0 | 0.00 | 0.00 | 0.00 | 78 | 976.9 |
| 20260831150819 | 83 | 314 | 1.0 | 3.0 | 0.00 | 0.00 | 0.00 | 79 | 976.9 |
| 20260831150320 | 83 | 314 | 1.0 | 4.0 | 0.00 | 0.00 | 0.00 | 81 | 976.9 |
| 20260831145818 | 83 | 314 | 2.0 | 4.0 | 0.00 | 0.00 | 0.00 | 82 | 976.9 |
| 20260831145316 | 82 | 309 | 1.0 | 4.0 | 0.00 | 0.00 | 0.00 | 83 | 976.9 |
| 20260831144813 | 82 | 313 | 1.0 | 4.0 | 0.00 | 0.00 | 0.00 | 84 | 976.9 |
| 20260831144314 | 81 | 308 | 1.0 | 3.0 | 0.00 | 0.00 | 0.00 | 84 | 976.8 |
| 20260831143813 | 81 | 308 | 1.0 | 4.0 | 0.00 | 0.00 | 0.00 | 85 | 976.8 |
| 20260831143311 | 80 | 307 | 1.0 | 4.0 | 0.00 | 0.00 | 0.00 | 85 | 976.8 |
| 20260831142810 | 80 | 306 | 1.0 | 4.0 | 0.00 | 0.00 | 0.00 | 85 | 976.9 |
| 20260831142313 | 79 | 306 | 1.0 | 5.0 | 0.00 | 0.00 | 0.00 | 85 | 976.9 |
| 20260831141810 | 79 | 306 | 1.0 | 5.0 | 0.00 | 0.00 | 0.00 | 85 | 976.9 |
| 20260831141311 | 79 | 305 | 1.0 | 4.0 | 0.00 | 0.00 | 0.00 | 85 | 976.8 |
| 20260831140809 | 79 | 5 | 1.0 | 3.0 | 0.00 | 0.00 | 0.00 | 84 | 976.8 |
| 20260831140311 | 78 | 157 | 0.0 | 3.0 | 0.00 | 0.00 | 0.00 | 83 | 976.8 |
| 20260831135811 | 77 | 228 | 0.0 | 3.0 | 0.00 | 0.00 | 0.00 | 80 | 976.8 |
| 20260831135307 | 76 | 228 | 0.0 | 3.0 | 0.00 | 0.00 | 0.00 | 75 | 976.7 |
| 20260831134805 | 75 | 228 | 0.0 | 2.0 | 0.00 | 0.00 | 0.00 | 71 | 976.8 |
| 20260831134307 | 74 | 228 | 0.0 | 2.0 | 0.00 | 0.00 | 0.00 | 69 | 976.8 |
| 20260831133806 | 74 | 246 | 0.0 | 0.0 | 0.00 | 0.00 | 0.00 | 68 | 976.9 |
| 20260831133305 | 73 | 175 | 0.0 | 0.0 | 0.00 | 0.00 | 0.00 | 68 | 976.9 |
| 20260831132806 | 73 | 171 | 0.0 | 0.0 | 0.00 | 0.00 | 0.00 | 67 | 976.9 |
| 20260831132307 | 72 | 171 | 0.0 | 0.0 | 0.00 | 0.00 | 0.00 | 68 | 976.9 |
| 20260831131806 | 71 | 171 | 0.0 | 0.0 | 0.00 | 0.00 | 0.00 | 68 | 977.0 |
| 20260831131306 | 71 | 169 | 0.0 | 0.0 | 0.00 | 0.00 | 0.00 | 68 | 976.9 |
| 20260831130805 | 70 | 169 | 0.0 | 0.0 | 0.00 | 0.00 | 0.00 | 68 | 976.8 |
| 20260831130305 | 70 | 169 | 0.0 | 0.0 | 0.00 | 0.00 | 0.00 | 68 | 976.9 |
| 20260831125806 | 69 | 169 | 0.0 | 0.0 | 0.00 | 0.00 | 0.00 | 68 | 977.0 |
| 20260831125306 | 69 | 169 | 0.0 | 0.0 | 0.00 | 0.00 | 0.00 | 68 | 977.0 |
| 20260831124805 | 68 | 169 | 0.0 | 0.0 | 0.00 | 0.00 | 0.00 | 68 | 977.0 |
| 20260831124306 | 68 | 169 | 0.0 | 0.0 | 0.00 | 0.00 | 0.00 | 68 | 977.0 |
| 20260831123805 | 67 | 169 | 0.0 | 0.0 | 0.00 | 0.00 | 0.00 | 69 | 977.0 |
| 20260831123306 | 67 | 169 | 0.0 | 0.0 | 0.00 | 0.00 | 0.00 | 69 | 977.0 |
| 20260831122805 | 67 | 169 | 0.0 | 0.0 | 0.00 | 0.00 | 0.00 | 69 | 977.0 |
| 20260831122306 | 67 | 169 | 0.0 | 0.0 | 0.00 | 0.00 | 0.00 | 69 | 976.9 |
| 20260831121805 | 66 | 168 | 0.0 | 0.0 | 0.00 | 0.00 | 0.00 | 69 | 976.8 |
| 20260831121306 | 66 | 168 | 0.0 | 0.0 | 0.00 | 0.00 | 0.00 | 69 | 976.8 |
| 20260831120805 | 65 | 168 | 0.0 | 0.0 | 0.00 | 0.00 | 0.00 | 69 | 976.7 |
| 20260831115306 | 64 | 168 | 0.0 | 0.0 | 0.00 | 0.00 | 0.00 | 70 | 976.9 |
| 20260831114803 | 64 | 168 | 0.0 | 0.0 | 0.00 | 0.00 | 0.00 | 70 | 976.9 |
| 20260831114302 | 64 | 168 | 0.0 | 0.0 | 0.00 | 0.00 | 0.00 | 70 | 976.8 |
| 20260831113757 | 64 | 168 | 0.0 | 0.0 | 0.00 | 0.00 | 0.00 | 70 | 976.8 |
| 20260831113251 | 64 | 168 | 0.0 | 0.0 | 0.00 | 0.00 | 0.00 | 70 | 976.8 |
| 20260831112744 | 63 | 168 | 0.0 | 0.0 | 0.00 | 0.00 | 0.00 | 70 | 976.8 |
| 20260831112239 | 63 | 168 | 0.0 | 0.0 | 0.00 | 0.00 | 0.00 | 70 | 976.7 |
| 20260831111227 | 63 | 168 | 0.0 | 0.0 | 0.00 | 0.00 | 0.00 | 70 | 976.6 |
| 20260831110721 | 63 | 168 | 0.0 | 0.0 | 0.00 | 0.00 | 0.00 | 70 | 976.6 |
| 20260831110215 | 64 | 168 | 0.0 | 0.0 | 0.00 | 0.00 | 0.00 | 70 | 976.5 |
| 20260831105203 | 64 | 168 | 0.0 | 0.0 | 0.00 | 0.00 | 0.00 | 70 | 976.4 |
| 20260831104657 | 64 | 168 | 0.0 | 0.0 | 0.00 | 0.00 | 0.00 | 70 | 976.4 |
| 20260831104150 | 64 | 168 | 0.0 | 0.0 | 0.00 | 0.00 | 0.00 | 70 | 976.5 |
| 20260831103645 | 64 | 168 | 0.0 | 0.0 | 0.00 | 0.00 | 0.00 | 70 | 976.5 |
| 20260831103138 | 64 | 168 | 0.0 | 0.0 | 0.00 | 0.00 | 0.00 | 70 | 976.4 |
| 20260831102632 | 64 | 168 | 0.0 | 0.0 | 0.00 | 0.00 | 0.00 | 70 | 976.3 |
| 20260831102127 | 64 | 168 | 0.0 | 0.0 | 0.00 | 0.00 | 0.00 | 70 | 976.3 |
| 20260831101620 | 64 | 168 | 0.0 | 0.0 | 0.00 | 0.00 | 0.00 | 70 | 976.4 |
| 20260831101114 | 64 | 168 | 0.0 | 0.0 | 0.00 | 0.00 | 0.00 | 70 | 976.4 |
| 20260831100608 | 64 | 168 | 0.0 | 0.0 | 0.00 | 0.00 | 0.00 | 70 | 976.2 |
| 20260831100103 | 64 | 168 | 0.0 | 0.0 | 0.00 | 0.00 | 0.00 | 70 | 976.2 |
| 20260831095556 | 64 | 168 | 0.0 | 0.0 | 0.00 | 0.00 | 0.00 | 70 | 976.1 |
| 20260831094545 | 64 | 168 | 0.0 | 0.0 | 0.00 | 0.00 | 0.00 | 70 | 976.1 |
| 20260831094039 | 64 | 168 | 0.0 | 0.0 | 0.00 | 0.00 | 0.00 | 70 | 976.1 |
| 20260831093026 | 64 | 168 | 0.0 | 0.0 | 0.00 | 0.00 | 0.00 | 70 | 976.1 |
| 20260831092520 | 64 | 168 | 0.0 | 0.0 | 0.00 | 0.00 | 0.00 | 70 | 976.1 |
| 20260831091508 | 64 | 168 | 0.0 | 0.0 | 0.00 | 0.00 | 0.00 | 70 | 976.0 |
| 20260831091002 | 64 | 168 | 0.0 | 0.0 | 0.00 | 0.00 | 0.00 | 70 | 976.0 |
| 20260831090457 | 64 | 168 | 0.0 | 0.0 | 0.00 | 0.00 | 0.00 | 71 | 976.1 |
| 20260831085950 | 64 | 168 | 0.0 | 0.0 | 0.00 | 0.00 | 0.00 | 71 | 976.1 |
| 20260831085445 | 64 | 168 | 0.0 | 0.0 | 0.00 | 0.00 | 0.00 | 71 | 976.1 |
| 20260831084938 | 64 | 168 | 0.0 | 0.0 | 0.00 | 0.00 | 0.00 | 71 | 976.2 |
| 20260831084432 | 64 | 168 | 0.0 | 0.0 | 0.00 | 0.00 | 0.00 | 71 | 976.1 |
| 20260831083927 | 65 | 168 | 0.0 | 0.0 | 0.00 | 0.00 | 0.00 | 71 | 975.9 |
| 20260831083420 | 65 | 168 | 0.0 | 0.0 | 0.00 | 0.00 | 0.00 | 71 | 975.9 |
| 20260831082915 | 65 | 168 | 0.0 | 0.0 | 0.00 | 0.00 | 0.00 | 71 | 975.9 |
| 20260831082408 | 65 | 168 | 0.0 | 0.0 | 0.00 | 0.00 | 0.00 | 71 | 975.9 |
| 20260831081903 | 65 | 168 | 0.0 | 0.0 | 0.00 | 0.00 | 0.00 | 71 | 975.9 |
| 20260831081356 | 65 | 168 | 0.0 | 0.0 | 0.00 | 0.00 | 0.00 | 71 | 975.9 |
| 20260831080851 | 65 | 168 | 0.0 | 0.0 | 0.00 | 0.00 | 0.00 | 70 | 976.0 |
| 20260831080352 | 65 | 168 | 0.0 | 0.0 | 0.00 | 0.00 | 0.00 | 70 | 976.0 |
| 20260831075849 | 65 | 168 | 0.0 | 0.0 | 0.00 | 0.00 | 0.00 | 71 | 976.0 |
| 20260831075347 | 65 | 168 | 0.0 | 0.0 | 0.00 | 0.00 | 0.00 | 71 | 976.0 |
| 20260831074845 | 65 | 168 | 0.0 | 0.0 | 0.00 | 0.00 | 0.00 | 71 | 975.9 |
| 20260831074343 | 65 | 168 | 0.0 | 0.0 | 0.00 | 0.00 | 0.00 | 71 | 975.9 |
| 20260831073841 | 65 | 168 | 0.0 | 0.0 | 0.00 | 0.00 | 0.00 | 71 | 975.8 |
| 20260831072840 | 65 | 168 | 0.0 | 0.0 | 0.00 | 0.00 | 0.00 | 71 | 975.9 |
| 20260831071837 | 65 | 168 | 0.0 | 0.0 | 0.00 | 0.00 | 0.00 | 71 | 976.0 |
| 20260831071335 | 65 | 168 | 0.0 | 0.0 | 0.00 | 0.00 | 0.00 | 71 | 975.9 |
| 20260831070336 | 66 | 168 | 0.0 | 0.0 | 0.00 | 0.00 | 0.00 | 71 | 976.0 |
| 20260831065833 | 66 | 168 | 0.0 | 0.0 | 0.00 | 0.00 | 0.00 | 71 | 976.1 |
| 20260831065333 | 66 | 168 | 0.0 | 0.0 | 0.00 | 0.00 | 0.00 | 71 | 976.1 |
| 20260831064833 | 66 | 168 | 0.0 | 0.0 | 0.00 | 0.00 | 0.00 | 71 | 976.2 |
| 20260831064333 | 66 | 168 | 0.0 | 0.0 | 0.00 | 0.00 | 0.00 | 71 | 976.3 |
| 20260831063833 | 66 | 168 | 0.0 | 0.0 | 0.00 | 0.00 | 0.00 | 71 | 976.3 |
| 20260831063334 | 67 | 168 | 0.0 | 0.0 | 0.00 | 0.00 | 0.00 | 71 | 976.4 |
| 20260831062831 | 67 | 168 | 0.0 | 0.0 | 0.00 | 0.00 | 0.00 | 71 | 976.4 |
| 20260831062329 | 67 | 168 | 0.0 | 0.0 | 0.00 | 0.00 | 0.00 | 71 | 976.3 |
| 20260831061819 | 67 | 168 | 0.0 | 0.0 | 0.00 | 0.00 | 0.00 | 71 | 976.4 |
| 20260831061314 | 67 | 168 | 0.0 | 0.0 | 0.00 | 0.00 | 0.00 | 71 | 976.5 |
| 20260831060301 | 67 | 168 | 0.0 | 0.0 | 0.00 | 0.00 | 0.00 | 72 | 976.5 |
| 20260831055756 | 66 | 168 | 0.0 | 0.0 | 0.00 | 0.00 | 0.00 | 72 | 976.6 |
| 20260831055249 | 66 | 168 | 0.0 | 0.0 | 0.00 | 0.00 | 0.00 | 72 | 976.5 |
| 20260831054744 | 67 | 168 | 0.0 | 0.0 | 0.00 | 0.00 | 0.00 | 72 | 976.6 |
| 20260831054237 | 67 | 168 | 0.0 | 0.0 | 0.00 | 0.00 | 0.00 | 72 | 976.6 |
| 20260831053731 | 67 | 168 | 0.0 | 0.0 | 0.00 | 0.00 | 0.00 | 72 | 976.6 |
| 20260831053225 | 67 | 168 | 0.0 | 0.0 | 0.00 | 0.00 | 0.00 | 72 | 976.7 |
| 20260831052719 | 67 | 168 | 0.0 | 0.0 | 0.00 | 0.00 | 0.00 | 72 | 976.7 |
| 20260831052214 | 67 | 168 | 0.0 | 0.0 | 0.00 | 0.00 | 0.00 | 73 | 976.7 |
| 20260831051707 | 67 | 168 | 0.0 | 0.0 | 0.00 | 0.00 | 0.00 | 73 | 976.8 |
| 20260831051202 | 67 | 168 | 0.0 | 0.0 | 0.00 | 0.00 | 0.00 | 73 | 976.7 |
| 20260831050655 | 67 | 168 | 0.0 | 0.0 | 0.00 | 0.00 | 0.00 | 73 | 976.7 |
| 20260831050149 | 67 | 168 | 0.0 | 0.0 | 0.00 | 0.00 | 0.00 | 73 | 976.6 |
| 20260831045644 | 67 | 168 | 0.0 | 0.0 | 0.00 | 0.00 | 0.00 | 73 | 976.6 |
| 20260831045137 | 68 | 168 | 0.0 | 0.0 | 0.00 | 0.00 | 0.00 | 73 | 976.6 |
| 20260831044631 | 68 | 168 | 0.0 | 0.0 | 0.00 | 0.00 | 0.00 | 73 | 976.6 |
| 20260831043620 | 68 | 168 | 0.0 | 0.0 | 0.00 | 0.00 | 0.00 | 73 | 976.7 |
| 20260831043113 | 68 | 168 | 0.0 | 0.0 | 0.00 | 0.00 | 0.00 | 73 | 976.7 |
| 20260831042609 | 68 | 168 | 0.0 | 0.0 | 0.00 | 0.00 | 0.00 | 73 | 976.7 |
| 20260831042101 | 68 | 168 | 0.0 | 0.0 | 0.00 | 0.00 | 0.00 | 73 | 976.7 |
| 20260831041050 | 68 | 168 | 0.0 | 0.0 | 0.00 | 0.00 | 0.00 | 74 | 976.7 |
| 20260831040543 | 68 | 168 | 0.0 | 0.0 | 0.00 | 0.00 | 0.00 | 74 | 976.7 |
| 20260831040037 | 69 | 168 | 0.0 | 0.0 | 0.00 | 0.00 | 0.00 | 74 | 976.8 |
| 20260831035531 | 69 | 168 | 0.0 | 0.0 | 0.00 | 0.00 | 0.00 | 74 | 976.9 |
| 20260831035025 | 69 | 168 | 0.0 | 0.0 | 0.00 | 0.00 | 0.00 | 75 | 976.8 |
| 20260831034519 | 69 | 168 | 0.0 | 0.0 | 0.00 | 0.00 | 0.00 | 75 | 976.9 |
| 20260831034013 | 69 | 168 | 0.0 | 0.0 | 0.00 | 0.00 | 0.00 | 75 | 976.8 |
| 20260831033507 | 69 | 168 | 0.0 | 0.0 | 0.00 | 0.00 | 0.00 | 75 | 976.8 |
| 20260831033001 | 69 | 168 | 0.0 | 0.0 | 0.00 | 0.00 | 0.00 | 75 | 976.8 |
| 20260831032455 | 69 | 168 | 0.0 | 0.0 | 0.00 | 0.00 | 0.00 | 75 | 977.0 |
| 20260831031950 | 69 | 168 | 0.0 | 0.0 | 0.00 | 0.00 | 0.00 | 75 | 976.9 |
| 20260831031444 | 69 | 168 | 0.0 | 0.0 | 0.00 | 0.00 | 0.00 | 76 | 977.0 |
| 20260831030937 | 70 | 168 | 0.0 | 0.0 | 0.00 | 0.00 | 0.00 | 76 | 977.0 |
| 20260831030432 | 70 | 168 | 0.0 | 0.0 | 0.00 | 0.00 | 0.00 | 76 | 977.0 |
| 20260831025419 | 70 | 168 | 0.0 | 0.0 | 0.00 | 0.00 | 0.00 | 77 | 977.1 |
| 20260831024914 | 70 | 168 | 0.0 | 0.0 | 0.00 | 0.00 | 0.00 | 78 | 977.1 |
| 20260831024408 | 70 | 168 | 0.0 | 0.0 | 0.00 | 0.00 | 0.00 | 78 | 977.1 |
| 20260831023902 | 70 | 168 | 0.0 | 0.0 | 0.00 | 0.00 | 0.00 | 78 | 977.1 |
| 20260831022850 | 71 | 168 | 0.0 | 0.0 | 0.00 | 0.00 | 0.00 | 78 | 977.1 |
| 20260831021837 | 71 | 168 | 0.0 | 0.0 | 0.00 | 0.00 | 0.00 | 78 | 977.1 |
| 20260831021331 | 71 | 168 | 0.0 | 0.0 | 0.00 | 0.00 | 0.00 | 79 | 977.1 |
| 20260831020319 | 71 | 168 | 0.0 | 0.0 | 0.00 | 0.00 | 0.00 | 80 | 977.2 |
| 20260831015813 | 71 | 168 | 0.0 | 0.0 | 0.00 | 0.00 | 0.00 | 80 | 977.1 |
| 20260831014802 | 71 | 168 | 0.0 | 0.0 | 0.00 | 0.00 | 0.00 | 82 | 977.1 |
| 20260831013749 | 71 | 168 | 0.0 | 0.0 | 0.00 | 0.00 | 0.00 | 83 | 977.0 |
| 20260831013247 | 72 | 168 | 0.0 | 0.0 | 0.00 | 0.00 | 0.00 | 83 | 977.0 |
| 20260831012746 | 72 | 168 | 0.0 | 0.0 | 0.00 | 0.00 | 0.00 | 84 | 976.9 |
| 20260831012247 | 72 | 168 | 0.0 | 0.0 | 0.00 | 0.00 | 0.00 | 84 | 976.8 |
| 20260831011745 | 72 | 168 | 0.0 | 0.0 | 0.00 | 0.00 | 0.00 | 84 | 976.7 |
| 20260831011243 | 72 | 168 | 0.0 | 0.0 | 0.00 | 0.00 | 0.00 | 85 | 976.6 |
| 20260831010740 | 73 | 168 | 0.0 | 0.0 | 0.00 | 0.00 | 0.00 | 85 | 976.6 |
| 20260831010239 | 73 | 168 | 0.0 | 0.0 | 0.00 | 0.00 | 0.00 | 85 | 976.5 |
| 20260831005738 | 73 | 168 | 0.0 | 0.0 | 0.00 | 0.00 | 0.00 | 86 | 976.4 |
| 20260831005239 | 73 | 168 | 0.0 | 0.0 | 0.00 | 0.00 | 0.00 | 86 | 976.3 |
| 20260831004737 | 74 | 168 | 0.0 | 0.0 | 0.00 | 0.00 | 0.00 | 86 | 976.3 |
| 20260831004235 | 74 | 168 | 0.0 | 0.0 | 0.00 | 0.00 | 0.00 | 86 | 976.3 |
| 20260831003733 | 74 | 168 | 0.0 | 0.0 | 0.00 | 0.00 | 0.00 | 87 | 976.3 |
| 20260831002729 | 75 | 168 | 0.0 | 0.0 | 0.00 | 0.00 | 0.00 | 87 | 976.2 |
| 20260831002228 | 75 | 168 | 0.0 | 0.0 | 0.00 | 0.00 | 0.00 | 87 | 976.2 |
| 20260831001729 | 76 | 168 | 0.0 | 0.0 | 0.00 | 0.00 | 0.00 | 87 | 976.2 |
| 20260831001227 | 76 | 168 | 0.0 | 0.0 | 0.00 | 0.00 | 0.00 | 87 | 976.1 |
| 20260831000724 | 76 | 168 | 0.0 | 0.0 | 0.00 | 0.00 | 0.00 | 87 | 976.1 |
| 20260831000222 | 77 | 168 | 0.0 | 0.0 | 0.00 | 0.00 | 0.00 | 87 | 976.1 |
| 20260830235220 | 77 | 168 | 0.0 | 0.0 | 0.00 | 0.00 | 0.00 | 86 | 976.0 |
| 20260830234722 | 78 | 168 | 0.0 | 0.0 | 0.00 | 0.00 | 0.00 | 86 | 976.0 |
| 20260830234220 | 78 | 168 | 0.0 | 0.0 | 0.00 | 0.00 | 0.00 | 85 | 975.9 |
| 20260830233721 | 79 | 168 | 0.0 | 0.0 | 0.00 | 0.00 | 0.00 | 85 | 976.0 |
| 20260830233221 | 79 | 168 | 0.0 | 0.0 | 0.00 | 0.00 | 0.00 | 84 | 976.0 |
| 20260830232721 | 80 | 168 | 0.0 | 0.0 | 0.00 | 0.00 | 0.00 | 84 | 976.1 |
| 20260830232221 | 81 | 168 | 0.0 | 2.0 | 0.00 | 0.00 | 0.00 | 83 | 976.1 |
| 20260830231720 | 81 | 168 | 0.0 | 2.0 | 0.00 | 0.00 | 0.00 | 81 | 976.1 |
| 20260830231221 | 82 | 169 | 0.0 | 4.0 | 0.00 | 0.00 | 0.00 | 81 | 976.1 |
| 20260830230716 | 82 | 169 | 0.0 | 4.0 | 0.00 | 0.00 | 0.00 | 78 | 976.0 |
| 20260830230217 | 83 | 186 | 0.0 | 2.0 | 0.00 | 0.00 | 0.00 | 78 | 976.1 |
| 20260830225716 | 83 | 186 | 1.0 | 3.0 | 0.00 | 0.00 | 0.00 | 78 | 976.0 |